Ophir, Colorado
Current Conditions -  °F | °C
As of 10:35 AM on Thursday 27 Nov 2014 (Local Time) from KTEX Reporting Station
Clear Clear  
Wind Chill: 35°   Ceiling: Unl
Heat Index: 39°   Visibility: 10mi
Dew Point: 18°   Wind: 6mph
Humidity: 42%   Direction: 120°ESE
Pressure: 30.56"   Gusts: NA
Location:  37.86°N, 107.83°W
Report Text: KTEX 271735Z AUTO 12005KT 10SM CLR 04/M08 A3056 RMK AO2 T00411077
Loading
Personal Weather Stations






























Interactive Weather Map New forecast layout! Learn more

10-Day Weather Forecast

Advertisements
Track Severe Weather on mobile